createdAt,value
2023-01-04T00:02:03.996Z,981.65
2023-01-04T00:04:32.458Z,974.00
2023-01-04T00:07:00.710Z,978.60
2023-01-04T00:09:28.895Z,973.17
2023-01-04T00:11:56.994Z,973.95
2023-01-04T00:14:25.172Z,973.10
2023-01-04T00:16:54.690Z,974.33
2023-01-04T00:19:22.806Z,972.13
2023-01-04T00:21:51.020Z,975.00
2023-01-04T00:24:19.865Z,983.88
2023-01-04T00:26:48.031Z,974.60
2023-01-04T00:29:16.205Z,979.30
2023-01-04T00:31:45.356Z,990.58
2023-01-04T00:34:18.253Z,978.03
2023-01-04T00:36:47.049Z,976.08
2023-01-04T00:39:17.468Z,980.47
2023-01-04T00:42:02.901Z,978.72
2023-01-04T00:44:32.005Z,980.05
2023-01-04T00:47:01.674Z,972.53
2023-01-04T00:49:32.404Z,973.72
2023-01-04T00:52:00.574Z,976.20
2023-01-04T00:54:29.594Z,964.15
2023-01-04T00:56:58.668Z,969.53
2023-01-04T00:59:26.818Z,962.00
2023-01-04T01:01:55.426Z,964.33
2023-01-04T01:04:25.193Z,968.78
2023-01-04T01:06:55.058Z,961.40
2023-01-04T01:09:23.813Z,966.58
2023-01-04T01:11:53.529Z,961.60
2023-01-04T01:14:25.581Z,966.58
2023-01-04T01:19:26.706Z,962.08
2023-01-04T01:21:57.255Z,963.75
2023-01-04T01:24:25.597Z,965.45
2023-01-04T01:26:54.701Z,968.35
2023-01-04T01:29:22.933Z,961.70
2023-01-04T01:31:51.089Z,970.55
2023-01-04T01:34:19.261Z,956.88
2023-01-04T01:36:47.522Z,952.67
2023-01-04T01:39:17.039Z,956.47
2023-01-04T01:41:45.538Z,950.03
2023-01-04T01:45:01.291Z,940.28
2023-01-04T01:47:38.843Z,948.42
2023-01-04T01:50:17.770Z,953.28
2023-01-04T01:52:46.054Z,899.80
2023-01-04T01:55:17.833Z,963.08
2023-01-04T01:57:50.186Z,953.08
2023-01-04T02:00:19.137Z,946.28
2023-01-04T02:02:58.889Z,932.42
2023-01-04T02:05:30.041Z,850.97
2023-01-04T02:07:58.314Z,922.67
2023-01-04T02:10:28.176Z,948.95
2023-01-04T02:12:56.488Z,871.53
2023-01-04T02:15:29.748Z,816.85
2023-01-04T02:18:07.025Z,833.30
2023-01-04T02:20:45.758Z,811.58
2023-01-04T02:23:59.419Z,823.47
2023-01-04T02:26:56.489Z,830.70
2023-01-04T02:30:08.674Z,863.97
2023-01-04T02:33:02.810Z,822.22
2023-01-04T02:35:38.050Z,809.33
2023-01-04T02:38:16.608Z,818.55
2023-01-04T02:40:54.606Z,895.90
2023-01-04T02:43:50.046Z,838.58
2023-01-04T02:46:24.765Z,830.55
2023-01-04T02:49:11.630Z,794.75
2023-01-04T02:51:40.560Z,818.72
2023-01-04T02:54:13.945Z,799.55
2023-01-04T02:57:05.904Z,844.17
2023-01-04T03:00:02.688Z,867.83
2023-01-04T03:03:09.481Z,834.45
2023-01-04T03:06:09.383Z,838.88
2023-01-04T03:08:41.036Z,831.75
2023-01-04T03:11:26.773Z,891.60
2023-01-04T03:13:59.183Z,903.40
2023-01-04T03:16:28.341Z,853.92
2023-01-04T03:19:04.419Z,856.42
2023-01-04T03:21:34.343Z,735.95
2023-01-04T03:24:21.659Z,825.35
2023-01-04T03:27:11.636Z,969.20
2023-01-04T03:30:02.035Z,972.72
2023-01-04T03:32:56.048Z,844.60
2023-01-04T03:35:37.722Z,877.33
2023-01-04T03:38:30.656Z,815.55
2023-01-04T03:41:20.251Z,812.60
2023-01-04T03:44:20.536Z,813.75
2023-01-04T03:47:12.347Z,797.13
2023-01-04T03:49:48.606Z,798.13
2023-01-04T03:52:18.545Z,805.08
2023-01-04T03:54:51.004Z,934.80
2023-01-04T03:57:19.697Z,839.15
2023-01-04T03:59:54.184Z,860.03
2023-01-04T04:02:25.956Z,828.85
2023-01-04T04:05:11.684Z,859.35
2023-01-04T04:07:57.429Z,841.85
2023-01-04T04:10:26.906Z,791.63
2023-01-04T04:12:55.012Z,722.10
2023-01-04T04:15:23.185Z,875.35
2023-01-04T04:17:51.293Z,829.83
2023-01-04T04:20:20.662Z,926.85
2023-01-04T04:22:49.210Z,1009.88
2023-01-04T04:25:17.573Z,838.25
2023-01-04T04:27:47.071Z,905.88
2023-01-04T04:30:15.930Z,983.33
2023-01-04T04:32:44.569Z,871.05
2023-01-04T04:35:12.729Z,864.60
2023-01-04T04:37:40.888Z,872.63
2023-01-04T04:40:31.125Z,916.90
2023-01-04T04:42:59.647Z,879.80
2023-01-04T04:45:27.824Z,888.13
2023-01-04T04:47:55.947Z,932.60
2023-01-04T04:50:24.044Z,933.45
2023-01-04T04:52:55.959Z,899.15
2023-01-04T04:55:24.893Z,914.33
2023-01-04T04:57:53.077Z,892.42
2023-01-04T05:00:22.801Z,922.03
2023-01-04T05:02:51.610Z,965.67
2023-01-04T05:05:19.793Z,997.72
2023-01-04T05:07:47.894Z,1002.67
2023-01-04T05:10:16.099Z,973.13
2023-01-04T05:13:01.193Z,978.47
2023-01-04T05:15:34.999Z,960.00
2023-01-04T05:18:03.836Z,946.58
2023-01-04T05:20:32.429Z,915.15
2023-01-04T05:23:00.611Z,906.85
2023-01-04T05:25:29.131Z,940.13
2023-01-04T05:27:57.695Z,954.58
2023-01-04T05:30:43.617Z,972.08
2023-01-04T05:33:13.244Z,965.10
2023-01-04T05:35:41.458Z,964.70
2023-01-04T05:38:09.628Z,950.65
2023-01-04T05:40:38.132Z,900.72
2023-01-04T05:43:06.322Z,881.22
2023-01-04T05:45:35.085Z,905.63
2023-01-04T05:48:03.688Z,883.58
2023-01-04T05:50:33.552Z,861.20
2023-01-04T05:53:06.170Z,887.45
2023-01-04T05:55:34.943Z,935.92
2023-01-04T05:58:03.105Z,940.65
2023-01-04T06:00:31.588Z,965.53
2023-01-04T06:02:59.982Z,940.58
2023-01-04T06:05:28.635Z,992.78
2023-01-04T06:07:58.104Z,948.55
2023-01-04T06:10:26.251Z,956.75
2023-01-04T06:12:54.754Z,976.97
2023-01-04T06:15:22.905Z,1006.17
2023-01-04T06:17:51.319Z,999.10
2023-01-04T06:20:19.666Z,973.97
2023-01-04T06:22:47.818Z,1007.03
2023-01-04T06:25:17.711Z,992.67
2023-01-04T06:27:46.017Z,1018.80
2023-01-04T06:30:14.716Z,1005.83
2023-01-04T06:32:43.526Z,1018.35
2023-01-04T06:35:11.682Z,1055.82
2023-01-04T06:37:40.695Z,1040.70
2023-01-04T06:40:11.033Z,948.95
2023-01-04T06:42:46.793Z,1105.78
2023-01-04T06:45:16.540Z,1162.57
2023-01-04T06:47:44.916Z,1084.88
2023-01-04T06:50:13.769Z,1114.60
2023-01-04T06:52:43.055Z,1037.85
2023-01-04T06:55:11.579Z,1077.97
2023-01-04T06:57:41.068Z,985.67
2023-01-04T07:00:11.781Z,999.67
2023-01-04T07:03:12.587Z,999.55
2023-01-04T07:05:28.397Z,1012.88
2023-01-04T07:07:56.520Z,996.20
2023-01-04T07:10:24.695Z,989.72
2023-01-04T07:12:54.391Z,993.95
2023-01-04T07:15:39.316Z,969.63
2023-01-04T07:18:08.792Z,987.42
2023-01-04T07:20:37.768Z,1019.65
2023-01-04T07:23:06.637Z,1068.22
2023-01-04T07:25:35.157Z,1065.68
2023-01-04T07:28:05.170Z,1078.93
2023-01-04T07:30:33.615Z,481.25
2023-01-04T07:33:01.995Z,372.95
2023-01-04T07:35:30.226Z,399.83
2023-01-04T07:37:59.354Z,374.92
2023-01-04T07:40:28.815Z,598.75
2023-01-04T07:42:58.220Z,1121.40
2023-01-04T07:45:28.338Z,1109.90
2023-01-04T07:47:56.555Z,1121.30
2023-01-04T07:50:24.761Z,690.88
2023-01-04T07:52:53.227Z,953.38
2023-01-04T07:55:21.433Z,692.50
2023-01-04T07:57:49.941Z,772.50
2023-01-04T08:00:18.929Z,1041.00
2023-01-04T08:02:50.523Z,1042.82
2023-01-04T08:05:18.868Z,1016.05
2023-01-04T08:07:47.411Z,1046.85
2023-01-04T08:10:15.579Z,1027.53
2023-01-04T08:12:43.797Z,989.80
2023-01-04T08:15:14.850Z,1047.60
2023-01-04T08:17:42.967Z,1052.57
2023-01-04T08:20:13.280Z,1025.53
2023-01-04T08:22:41.686Z,996.65
2023-01-04T08:25:10.920Z,997.13
2023-01-04T08:27:39.486Z,1017.50
2023-01-04T08:30:11.405Z,1061.60
2023-01-04T08:32:41.580Z,1055.13
2023-01-04T08:35:10.293Z,954.13
2023-01-04T08:37:39.876Z,955.45
2023-01-04T08:40:10.854Z,961.85
2023-01-04T08:42:39.507Z,1004.60
2023-01-04T08:45:09.693Z,968.20
2023-01-04T08:47:37.932Z,972.22
2023-01-04T08:50:10.619Z,984.17
2023-01-04T08:52:43.132Z,1014.53
2023-01-04T08:55:13.995Z,1040.00
2023-01-04T08:57:43.237Z,1117.72
2023-01-04T09:00:13.635Z,1133.70
2023-01-04T09:02:41.891Z,1078.28
2023-01-04T09:05:10.594Z,1013.55
2023-01-04T09:07:52.120Z,1040.95
2023-01-04T09:10:20.362Z,1079.55
2023-01-04T09:12:48.626Z,1048.40
2023-01-04T09:15:17.870Z,1015.15
2023-01-04T09:18:20.554Z,1037.88
2023-01-04T09:20:34.986Z,1065.47
2023-01-04T09:23:04.534Z,999.03
2023-01-04T09:25:32.805Z,1027.25
2023-01-04T09:28:00.983Z,1111.85
2023-01-04T09:30:31.775Z,1126.18
2023-01-04T09:33:00.247Z,1102.07
2023-01-04T09:35:28.406Z,1056.05
2023-01-04T09:37:56.945Z,1082.70
2023-01-04T09:40:34.461Z,1054.80
2023-01-04T09:43:20.971Z,1025.03
2023-01-04T09:45:54.807Z,1047.32
2023-01-04T09:48:28.060Z,1043.88
2023-01-04T09:51:00.960Z,1040.43
2023-01-04T09:53:33.268Z,1056.57
2023-01-04T09:56:11.034Z,1029.50
2023-01-04T09:58:42.336Z,1040.03
2023-01-04T10:01:16.538Z,1059.47
2023-01-04T10:03:54.521Z,1041.25
2023-01-04T10:06:22.852Z,1047.57
2023-01-04T10:08:51.437Z,1040.90
2023-01-04T10:11:42.271Z,1030.15
2023-01-04T10:14:43.270Z,1055.60
2023-01-04T10:17:57.487Z,1082.32
2023-01-04T10:23:59.718Z,1121.95
2023-01-04T10:26:35.999Z,1109.82
2023-01-04T10:29:36.370Z,1143.95
2023-01-04T10:32:14.223Z,1132.32
2023-01-04T10:34:47.198Z,1118.95
2023-01-04T10:37:20.349Z,1124.63
2023-01-04T10:39:55.072Z,1107.55
2023-01-04T10:42:34.989Z,1108.60
2023-01-04T10:45:14.829Z,1114.35
2023-01-04T10:47:56.145Z,1119.18
2023-01-04T10:50:30.708Z,1143.53
2023-01-04T10:53:06.161Z,1133.03
2023-01-04T10:56:24.441Z,1156.75
2023-01-04T10:58:40.157Z,1197.10
2023-01-04T11:01:14.298Z,1152.45
2023-01-04T11:03:51.995Z,1123.22
2023-01-04T11:06:25.809Z,1141.25
2023-01-04T11:09:00.506Z,1155.32
2023-01-04T11:11:34.973Z,1159.95
2023-01-04T11:14:05.197Z,1186.72
2023-01-04T11:16:33.921Z,1203.70
2023-01-04T11:19:04.256Z,1210.05
2023-01-04T11:21:40.908Z,1206.05
2023-01-04T11:24:31.529Z,1197.28
2023-01-04T11:27:06.365Z,1210.85
2023-01-04T11:29:42.755Z,1228.32
2023-01-04T11:32:22.200Z,1203.28
2023-01-04T11:34:54.214Z,1195.55
2023-01-04T11:40:23.438Z,1240.97
2023-01-04T11:42:54.504Z,1228.38
2023-01-04T11:45:28.578Z,1232.23
2023-01-04T11:47:59.176Z,1236.97
2023-01-04T11:50:43.244Z,1233.72
2023-01-04T11:53:28.819Z,1218.40
2023-01-04T11:56:25.964Z,1247.57
2023-01-04T11:59:17.728Z,1162.00
2023-01-04T12:02:11.188Z,1090.53
2023-01-04T12:04:39.516Z,1081.82
2023-01-04T12:07:18.889Z,1033.82
2023-01-04T12:09:47.427Z,1044.57
2023-01-04T12:12:16.185Z,1034.43
2023-01-04T12:14:49.773Z,1050.32
2023-01-04T12:17:25.210Z,1038.40
2023-01-04T12:19:56.360Z,972.28
2023-01-04T12:22:32.923Z,869.33
2023-01-04T12:25:02.662Z,896.13
2023-01-04T12:27:31.072Z,884.15
2023-01-04T12:30:01.642Z,872.92
2023-01-04T12:32:44.206Z,862.10
2023-01-04T12:36:01.452Z,851.80
2023-01-04T12:39:29.894Z,814.40
2023-01-04T12:42:22.215Z,782.17
2023-01-04T12:45:19.558Z,762.45
2023-01-04T12:48:12.515Z,729.88
2023-01-04T12:51:33.243Z,725.15
2023-01-04T12:54:04.696Z,722.35
2023-01-04T12:57:11.231Z,704.67
2023-01-04T12:59:40.296Z,714.92
2023-01-04T13:02:24.648Z,720.33
2023-01-04T13:05:25.620Z,730.15
2023-01-04T13:07:49.446Z,683.50
2023-01-04T13:10:29.917Z,680.78
2023-01-04T13:13:26.365Z,674.97
2023-01-04T13:16:10.745Z,674.55
2023-01-04T13:18:43.688Z,679.42
2023-01-04T13:21:17.027Z,685.53
2023-01-04T13:23:52.738Z,684.47
2023-01-04T13:26:48.330Z,654.53
2023-01-04T13:29:21.325Z,652.13
2023-01-04T13:31:58.410Z,643.58
2023-01-04T13:34:31.905Z,633.83
2023-01-04T13:37:17.222Z,623.38
2023-01-04T13:39:48.533Z,611.17
2023-01-04T13:42:26.759Z,606.57
2023-01-04T13:45:35.268Z,588.72
2023-01-04T13:48:09.249Z,609.20
2023-01-04T13:50:44.082Z,630.85
2023-01-04T13:53:22.443Z,629.55
2023-01-04T13:55:55.746Z,631.28
2023-01-04T13:58:27.233Z,608.30
2023-01-04T14:00:59.428Z,612.75
2023-01-04T14:03:37.767Z,635.92
2023-01-04T14:06:24.136Z,642.42
2023-01-04T14:09:03.306Z,640.10
2023-01-04T14:11:53.014Z,647.00
2023-01-04T14:14:33.150Z,646.17
2023-01-04T14:17:27.080Z,648.50
2023-01-04T14:19:57.753Z,628.80
2023-01-04T14:22:41.518Z,644.92
2023-01-04T14:25:56.344Z,579.35
2023-01-04T14:28:44.859Z,560.05
2023-01-04T14:31:38.313Z,619.58
2023-01-04T14:34:09.261Z,550.78
2023-01-04T14:36:40.111Z,582.45
2023-01-04T14:39:25.169Z,556.97
2023-01-04T14:41:59.725Z,559.35
2023-01-04T14:44:31.969Z,521.40
2023-01-04T14:49:31.465Z,579.63
2023-01-04T14:52:01.626Z,572.55
2023-01-04T14:54:33.574Z,584.72
2023-01-04T14:57:04.077Z,587.15
2023-01-04T14:59:32.521Z,572.03
2023-01-04T15:02:00.917Z,552.25
2023-01-04T15:04:29.369Z,547.13
2023-01-04T15:06:59.776Z,559.60
2023-01-04T15:09:29.692Z,559.78
2023-01-04T15:11:58.795Z,627.38
2023-01-04T15:14:28.412Z,586.55
2023-01-04T15:16:56.563Z,587.40
2023-01-04T15:19:25.241Z,594.63
2023-01-04T15:21:53.610Z,630.40
2023-01-04T15:24:21.988Z,681.08
2023-01-04T15:26:50.147Z,673.03
2023-01-04T15:29:18.449Z,643.40
2023-01-04T15:31:48.004Z,601.00
2023-01-04T15:34:16.261Z,603.88
2023-01-04T15:36:44.403Z,621.67
2023-01-04T15:39:14.590Z,657.05
2023-01-04T15:42:00.735Z,600.22
2023-01-04T15:44:29.259Z,584.95
2023-01-04T15:46:59.553Z,593.15
2023-01-04T15:49:30.447Z,585.83
2023-01-04T15:51:59.269Z,580.63
2023-01-04T15:54:28.118Z,589.10
2023-01-04T15:56:56.779Z,627.50
2023-01-04T15:59:25.702Z,621.95
2023-01-04T16:01:53.880Z,617.08
2023-01-04T16:04:23.549Z,607.65
2023-01-04T16:06:51.741Z,592.53
2023-01-04T16:09:19.975Z,596.78
2023-01-04T16:12:05.872Z,586.22
2023-01-04T16:14:34.063Z,587.47
2023-01-04T16:17:02.187Z,575.00
2023-01-04T16:19:34.211Z,574.38
2023-01-04T16:25:08.604Z,562.30
2023-01-04T16:27:18.904Z,563.03
2023-01-04T16:29:47.415Z,581.83
2023-01-04T16:32:15.912Z,594.72
2023-01-04T16:34:45.453Z,601.00
2023-01-04T16:37:13.639Z,603.72
2023-01-04T16:42:30.506Z,552.00
2023-01-04T16:44:58.658Z,542.50
2023-01-04T16:47:26.904Z,544.45
2023-01-04T16:49:56.391Z,548.40
2023-01-04T16:52:27.273Z,548.35
2023-01-04T16:54:55.551Z,544.45
2023-01-04T16:57:24.743Z,534.65
2023-01-04T16:59:53.046Z,538.67
2023-01-04T17:02:21.457Z,542.53
2023-01-04T17:04:55.341Z,544.25
2023-01-04T17:07:27.373Z,548.55
2023-01-04T17:09:55.529Z,540.60
2023-01-04T17:15:41.971Z,548.78
2023-01-04T17:18:00.723Z,543.28
2023-01-04T17:20:28.836Z,545.85
2023-01-04T17:22:58.800Z,538.00
2023-01-04T17:25:26.961Z,540.55
2023-01-04T17:27:55.340Z,533.10
2023-01-04T17:30:23.782Z,538.72
2023-01-04T17:32:51.992Z,540.53
2023-01-04T17:35:20.115Z,540.50
2023-01-04T17:37:48.474Z,548.80
2023-01-04T17:40:22.878Z,583.97
2023-01-04T17:42:52.182Z,591.33
2023-01-04T17:45:20.834Z,587.42
2023-01-04T17:47:49.256Z,609.97
2023-01-04T17:50:18.159Z,648.42
2023-01-04T17:52:46.688Z,590.88
2023-01-04T17:55:15.281Z,615.35
2023-01-04T17:57:45.519Z,599.50
2023-01-04T18:00:15.848Z,588.42
2023-01-04T18:02:44.995Z,589.30
2023-01-04T18:05:13.607Z,581.63
2023-01-04T18:07:41.769Z,588.97
2023-01-04T18:10:20.787Z,588.60
2023-01-04T18:12:56.479Z,587.40
2023-01-04T18:15:24.660Z,539.95
2023-01-04T18:17:52.825Z,545.83
2023-01-04T18:20:24.885Z,563.83
2023-01-04T18:22:53.797Z,603.97
2023-01-04T18:25:22.127Z,547.05
2023-01-04T18:27:50.539Z,607.67
2023-01-04T18:30:20.264Z,609.17
2023-01-04T18:32:48.446Z,583.65
2023-01-04T18:35:16.898Z,633.88
2023-01-04T18:37:46.316Z,616.25
2023-01-04T18:40:14.520Z,618.50
2023-01-04T18:42:48.162Z,614.65
2023-01-04T18:45:17.179Z,597.67
2023-01-04T18:47:48.120Z,596.58
2023-01-04T18:50:16.590Z,617.88
2023-01-04T18:52:44.999Z,636.20
2023-01-04T18:55:13.314Z,611.47
2023-01-04T18:57:41.674Z,596.47
2023-01-04T19:00:12.334Z,613.10
2023-01-04T19:02:40.782Z,583.95
2023-01-04T19:05:11.575Z,606.88
2023-01-04T19:07:40.471Z,539.38
2023-01-04T19:10:09.950Z,540.25
2023-01-04T19:12:38.863Z,537.83
2023-01-04T19:15:09.329Z,529.17
2023-01-04T19:17:38.718Z,528.75
2023-01-04T19:20:08.138Z,517.50
2023-01-04T19:22:37.997Z,549.42
2023-01-04T19:25:07.693Z,555.10
2023-01-04T19:27:36.231Z,533.95
2023-01-04T19:30:06.073Z,539.72
2023-01-04T19:32:34.251Z,538.80
2023-01-04T19:35:02.433Z,546.08
2023-01-04T19:37:31.206Z,546.35
2023-01-04T19:40:00.672Z,534.03
2023-01-04T19:42:28.781Z,524.70
2023-01-04T19:44:56.890Z,532.97
2023-01-04T19:47:25.040Z,505.52
2023-01-04T19:49:53.173Z,497.92
2023-01-04T19:52:21.288Z,509.75
2023-01-04T19:54:49.478Z,498.00
2023-01-04T19:57:19.244Z,506.38
2023-01-04T19:59:47.823Z,498.65
2023-01-04T20:02:16.317Z,488.70
2023-01-04T20:04:44.965Z,483.70
2023-01-04T20:07:13.151Z,491.48
2023-01-04T20:09:41.364Z,498.75
2023-01-04T20:12:09.681Z,501.20
2023-01-04T20:14:39.383Z,502.90
2023-01-04T20:17:07.935Z,490.45
2023-01-04T20:19:36.125Z,492.55
2023-01-04T20:22:04.255Z,486.23
2023-01-04T20:24:32.808Z,481.38
2023-01-04T20:27:00.958Z,481.98
2023-01-04T20:29:29.161Z,495.83
2023-01-04T20:32:00.603Z,488.15
2023-01-04T20:34:28.920Z,493.75
2023-01-04T20:36:57.117Z,490.45
2023-01-04T20:39:25.368Z,487.48
2023-01-04T20:42:10.848Z,491.67
2023-01-04T20:44:39.511Z,488.38
2023-01-04T20:47:09.030Z,476.92
2023-01-04T20:49:37.233Z,477.20
2023-01-04T20:52:06.138Z,479.83
2023-01-04T20:54:34.331Z,454.08
2023-01-04T20:57:02.454Z,443.33
2023-01-04T20:59:30.791Z,446.20
2023-01-04T21:01:59.174Z,434.33
2023-01-04T21:04:28.767Z,424.05
2023-01-04T21:06:56.825Z,425.75
2023-01-04T21:09:24.958Z,430.23
2023-01-04T21:11:56.107Z,433.60
2023-01-04T21:14:26.129Z,425.38
2023-01-04T21:16:54.250Z,421.27
2023-01-04T21:19:23.234Z,418.48
2023-01-04T21:21:52.925Z,405.80
2023-01-04T21:24:21.090Z,408.77
2023-01-04T21:26:49.234Z,407.52
2023-01-04T21:29:17.379Z,420.50
2023-01-04T21:31:45.559Z,413.95
2023-01-04T21:34:17.079Z,431.85
2023-01-04T21:36:48.063Z,404.17
2023-01-04T21:39:17.580Z,422.67
2023-01-04T21:41:48.217Z,364.58
2023-01-04T21:44:16.691Z,367.15
2023-01-04T21:46:44.975Z,372.70
2023-01-04T21:49:13.318Z,356.38
2023-01-04T21:51:41.483Z,371.42
2023-01-04T21:54:09.672Z,449.48
2023-01-04T21:56:39.210Z,486.38
2023-01-04T21:59:07.385Z,465.80
2023-01-04T22:01:35.967Z,463.90
2023-01-04T22:04:04.782Z,478.10
2023-01-04T22:06:37.275Z,457.88
2023-01-04T22:09:05.654Z,474.00
2023-01-04T22:11:33.813Z,469.13
2023-01-04T22:14:03.416Z,478.17
2023-01-04T22:16:32.677Z,464.50
2023-01-04T22:19:00.868Z,468.15
2023-01-04T22:21:29.038Z,462.33
2023-01-04T22:23:57.453Z,455.25
2023-01-04T22:26:25.632Z,463.35
2023-01-04T22:28:53.800Z,460.85
2023-01-04T22:31:23.346Z,465.58
2023-01-04T22:33:51.478Z,465.80
2023-01-04T22:36:23.193Z,462.45
2023-01-04T22:41:22.395Z,466.73
2023-01-04T22:43:56.589Z,462.35
2023-01-04T22:46:27.491Z,466.85
2023-01-04T22:48:56.038Z,480.23
2023-01-04T22:51:27.530Z,470.95
2023-01-04T22:53:56.765Z,469.20
2023-01-04T22:56:25.797Z,455.10
2023-01-04T22:58:56.192Z,458.73
2023-01-04T23:01:28.574Z,462.15
2023-01-04T23:03:58.282Z,469.27
2023-01-04T23:06:27.689Z,447.35
2023-01-04T23:08:57.638Z,472.27
2023-01-04T23:11:27.073Z,413.65
2023-01-04T23:13:55.888Z,440.77
2023-01-04T23:16:31.811Z,460.05
2023-01-04T23:19:00.820Z,441.75
2023-01-04T23:21:29.132Z,462.23
2023-01-04T23:23:57.292Z,457.17
2023-01-04T23:26:28.106Z,458.58
2023-01-04T23:28:56.564Z,459.45
2023-01-04T23:31:29.868Z,458.55
2023-01-04T23:34:00.294Z,447.75
2023-01-04T23:36:31.141Z,451.92
2023-01-04T23:39:02.019Z,368.42
2023-01-04T23:44:26.929Z,449.75
2023-01-04T23:46:58.039Z,450.83
2023-01-04T23:49:28.916Z,448.95
2023-01-04T23:51:57.538Z,444.80
2023-01-04T23:54:26.981Z,392.38
2023-01-04T23:56:56.186Z,398.08
2023-01-04T23:59:26.022Z,402.52
